Search for airport 
image banner adimage banner adimage banner ad
image banner ad

1CA2 - Sunrise One Heliport

Located in Rancho Cordova, United States

ICAO - 1CA2, IATA -

Data provided by Airmate  

General information

Coordinates: N33°38'22" W116°9'11"
Elevation is -117 feet MSL.
 
View others Airports in California

Operational data

Special qualification required
Current time UTC:
Current local time:
Weather at : KTRM - Jacqueline Cochran Rgnl ( 2 km )
METAR: KTRM 221452Z AUTO 12003KT 10SM CLR 31/11 A2977 RMK AO2 SLPNO T03060106 53010
TAF: KTRM 221137Z 2212/2312 VRB05KT P6SM BKN200 FM221800 13008KT P6SM SCT250 FM222100 14014G21KT P6SM SCT250 FM230100 33008KT P6SM BKN200
View NOTAMs / SUP AIP / TFR affecting this airport [VIEW]
Communications frequencies: [VIEW]

Runways:

Airport contact information

Address: Rancho Cordova United States

Satellite view of 1CA2